WetterOnline ( http://www.wetteronline.de )

Wetter aktuell Magdeburg

Aktuelles Wetter: Magdeburg (85m)

6-stündlich | Neueste Meldungen
Ortszeit Temperatur Wetter
Sa, 23.02. 13:00 4.2° C leicht bewölkt
Sa, 23.02. 7:00 -3.1° C -
Sa, 23.02. 1:00 -0.7° C wolkig
Fr, 22.02. 19:00 1.8° C -
Fr, 22.02. 13:00 3.7° C bedeckt
Fr, 22.02. 7:00 8.0° C bedeckt
Fr, 22.02. 1:00 9.2° C bedeckt
Do, 21.02. 19:00 9.8° C bedeckt
Ortszeit Temperatur Wetter
Sa, 23.02. 17:30 4.8° C bewölkt
Sa, 23.02. 17:20 4.8° C bewölkt
Sa, 23.02. 17:10 5.0° C wolkig
Sa, 23.02. 17:00 5.3° C bewölkt
Sa, 23.02. 16:50 5.3° C bewölkt
Sa, 23.02. 16:40 5.4° C bedeckt
Sa, 23.02. 16:30 5.6° C bewölkt
Sa, 23.02. 16:00 5.9° C leicht bewölkt
Sa, 23.02. 15:30 5.9° C bewölkt
Sa, 23.02. 15:00 5.7° C wolkig
Sa, 23.02. 14:30 5.5° C leicht bewölkt
Ortszeit Relative Feuchte Sichtweite
Sa, 23.02. 13:00 52% 26 km
Sa, 23.02. 7:00 79% 30 km
Sa, 23.02. 1:00 68% 40 km
Fr, 22.02. 19:00 76% 28 km
Fr, 22.02. 13:00 75% 28 km
Fr, 22.02. 7:00 88% 9 km
Fr, 22.02. 1:00 90% 7 km
Do, 21.02. 19:00 79% 12 km
Ortszeit Relative Feuchte Sichtweite
Sa, 23.02. 17:30 54% 24 km
Sa, 23.02. 17:20 54% -
Sa, 23.02. 17:10 53% -
Sa, 23.02. 17:00 51% 24 km
Sa, 23.02. 16:50 51% -
Sa, 23.02. 16:40 52% -
Sa, 23.02. 16:30 49% 26 km
Sa, 23.02. 16:00 44% 28 km
Sa, 23.02. 15:30 46% 29 km
Sa, 23.02. 15:00 51% 27 km
Sa, 23.02. 14:30 49% 24 km
Ortszeit Niederschlagsmenge Niederschlagsart
Sa, 23.02. 13:00 0.0 l/m2 in 6 Std. -
Sa, 23.02. 7:00 0.0 l/m2 in 12 Std. -
Sa, 23.02. 1:00 0.0 l/m2 in 6 Std. -
Fr, 22.02. 19:00 0.1 l/m2 in 12 Std. -
Fr, 22.02. 13:00 0.1 l/m2 in 6 Std. Sprühregen
Fr, 22.02. 7:00 0.3 l/m2 in 12 Std. Regen
Fr, 22.02. 1:00 0.2 l/m2 in 6 Std. Regen
Do, 21.02. 19:00 0.1 l/m2 in 12 Std. Regen
Ortszeit Niederschlagsmenge Niederschlagsart
Sa, 23.02. 17:30 0.0 l/m2 in 1 Std. -
Sa, 23.02. 17:20 keine Meldung -
Sa, 23.02. 17:10 keine Meldung -
Sa, 23.02. 17:00 0.0 l/m2 in 1 Std. -
Sa, 23.02. 16:50 keine Meldung -
Sa, 23.02. 16:40 keine Meldung -
Sa, 23.02. 16:30 0.0 l/m2 in 1 Std. -
Sa, 23.02. 16:00 0.0 l/m2 in 1 Std. -
Sa, 23.02. 15:30 0.0 l/m2 in 1 Std. -
Sa, 23.02. 15:00 0.0 l/m2 in 1 Std. -
Sa, 23.02. 14:30 0.0 l/m2 in 1 Std. -
Ortszeit Stärke Spitze Richtung
km/h Bft. km/h Grad Sektor
Sa, 23.02. 13:00 7 2 25 120° SO
Sa, 23.02. 7:00 4 1 18 90° O
Sa, 23.02. 1:00 7 2 18 120° SO
Fr, 22.02. 19:00 4 1 25 80° O
Fr, 22.02. 13:00 11 2 32 80° O
Fr, 22.02. 7:00 11 2 32 350° N
Fr, 22.02. 1:00 9 2 35 310° NW
Do, 21.02. 19:00 13 3 43 280° W
Ortszeit Stärke Spitze Richtung
km/h Bft. km/h Grad Sektor
Sa, 23.02. 17:30 7 2 14 150° SO
Sa, 23.02. 17:20 7 2 - 150° SO
Sa, 23.02. 17:10 7 2 - 150° SO
Sa, 23.02. 17:00 9 2 20 140° SO
Sa, 23.02. 16:50 9 2 - 140° SO
Sa, 23.02. 16:40 9 2 - 150° SO
Sa, 23.02. 16:30 11 2 22 150° SO
Sa, 23.02. 16:00 11 2 22 140° SO
Sa, 23.02. 15:30 11 2 22 130° SO
Sa, 23.02. 15:00 9 2 19 170° S
Sa, 23.02. 14:30 7 2 14 140° SO
Ortszeit Untergrenze Bedeckung Gattung
total tief tief mittel hoch
Sa, 23.02. 13:00 8400 m 8/8 0/8 - - -
Sa, 23.02. 7:00 - - - - - -
Sa, 23.02. 1:00 8700 m 7/8 0/8 - - -
Fr, 22.02. 19:00 - - - - - -
Fr, 22.02. 13:00 420 m 8/8 8/8 - - -
Fr, 22.02. 7:00 270 m 8/8 8/8 - - -
Fr, 22.02. 1:00 270 m 8/8 8/8 - - -
Do, 21.02. 19:00 660 m 8/8 8/8 - - -
Ortszeit Bedeckungsgrad in Achtel und Wolkenuntergrenze
Sa, 23.02. 17:30 5(6900m) 8(10500m) 8(10500m)
Sa, 23.02. 17:20 5(6900m) 8(10500m) 8(10500m)
Sa, 23.02. 17:10 1(6000m) 8(10500m) 8(10500m)
Sa, 23.02. 17:00 5(5700m) 8(10500m) 8(12000m)
Sa, 23.02. 16:50 5(5700m) 8(10500m) 8(12000m)
Sa, 23.02. 16:40 7(6000m) 8(6900m) 8(7500m)
Sa, 23.02. 16:30 4(6000m) 8(8400m) 8(10500m)
Sa, 23.02. 16:00 1(6000m) 8(9000m) 8(10500m)
Sa, 23.02. 15:30 4(6300m) 8(8100m) 8(9000m)
Sa, 23.02. 15:00 5(6900m) 8(9000m) 8(12000m)
Sa, 23.02. 14:30 3(7500m) 6(9000m) 6(10500m)
Ortszeit Luftdruck NN (hPa) Tendenz (hPa in 3 Std.)
Sa, 23.02. 13:00 1043 - 0,7
Sa, 23.02. 7:00 1044 + 0,3
Sa, 23.02. 1:00 1045 + 0,9
Fr, 22.02. 19:00 1043 + 2,0
Fr, 22.02. 13:00 1039 + 3,0
Fr, 22.02. 7:00 1031 + 2,6
Fr, 22.02. 1:00 1027 + 1,4
Do, 21.02. 19:00 1025 + 0,6
Ortszeit Luftdruck NN (hPa) Tendenz (hPa in 3 Std.)
Sa, 23.02. 17:30 1042 - 0,7
Sa, 23.02. 17:20 1042 keine Meldung
Sa, 23.02. 17:10 1042 keine Meldung
Sa, 23.02. 17:00 1042 - 0,9
Sa, 23.02. 16:50 1042 keine Meldung
Sa, 23.02. 16:40 1042 keine Meldung
Sa, 23.02. 16:30 1042 - 1,2
Sa, 23.02. 16:00 1042 - 1,4
Sa, 23.02. 15:30 1042 - 1,5
Sa, 23.02. 15:00 1042 - 1,6
Sa, 23.02. 14:30 1042 - 1,8
Ortszeit Schneehöhe (cm)
Sa, 23.02. 13:00 0
Sa, 23.02. 7:00 0
Sa, 23.02. 1:00 0
Fr, 22.02. 19:00 0
Fr, 22.02. 13:00 0
Fr, 22.02. 7:00 0
Fr, 22.02. 1:00 0
Do, 21.02. 19:00 0
Ortszeit Schneehöhe (cm)
Sa, 23.02. 17:30 0
Sa, 23.02. 17:20 0
Sa, 23.02. 17:10 0
Sa, 23.02. 17:00 0
Sa, 23.02. 16:50 0
Sa, 23.02. 16:40 0
Sa, 23.02. 16:30 0
Sa, 23.02. 16:00 0
Sa, 23.02. 15:30 0
Sa, 23.02. 15:00 0
Sa, 23.02. 14:30 0
Link zu dieser Seite / Seite empfehlen

Das Wetter in ...